createdAt,value
2023-02-11T00:01:32.420Z,101437.45
2023-02-11T00:04:00.701Z,101432.09
2023-02-11T00:06:29.553Z,101429.48
2023-02-11T00:08:57.608Z,101426.05
2023-02-11T00:11:30.266Z,101429.17
2023-02-11T00:13:59.426Z,101425.73
2023-02-11T00:16:27.385Z,101425.58
2023-02-11T00:18:55.752Z,101423.16
2023-02-11T00:21:25.433Z,101418.48
2023-02-11T00:23:54.956Z,101421.58
2023-02-11T00:26:24.945Z,101423.13
2023-02-11T00:28:53.601Z,101425.88
2023-02-11T00:31:22.188Z,101418.95
2023-02-11T00:33:50.112Z,101419.98
2023-02-11T00:36:20.642Z,101423.45
2023-02-11T00:38:49.953Z,101420.68
2023-02-11T00:41:18.258Z,101418.79
2023-02-11T00:43:46.380Z,101418.45
2023-02-11T00:46:14.813Z,101412.40
2023-02-11T00:48:42.980Z,101412.93
2023-02-11T00:51:11.024Z,101413.45
2023-02-11T00:53:38.941Z,101415.52
2023-02-11T00:56:06.967Z,101418.80
2023-02-11T00:58:36.556Z,101412.53
2023-02-11T01:01:05.336Z,101412.51
2023-02-11T01:03:34.218Z,101408.16
2023-02-11T01:06:02.178Z,101411.96
2023-02-11T01:08:30.536Z,101405.88
2023-02-11T01:11:05.603Z,101410.54
2023-02-11T01:13:35.307Z,101408.29
2023-02-11T01:16:03.745Z,101411.06
2023-02-11T01:18:32.221Z,101407.27
2023-02-11T01:21:00.132Z,101406.58
2023-02-11T01:23:28.055Z,101404.34
2023-02-11T01:25:56.473Z,101406.59
2023-02-11T01:28:25.497Z,101406.24
2023-02-11T01:30:53.775Z,101410.55
2023-02-11T01:33:22.550Z,101411.55
2023-02-11T01:35:50.967Z,101409.61
2023-02-11T01:38:25.321Z,101410.27
2023-02-11T01:40:56.312Z,101404.86
2023-02-11T01:43:24.829Z,101404.36
2023-02-11T01:45:54.473Z,101404.52
2023-02-11T01:48:46.365Z,101406.09
2023-02-11T01:51:18.721Z,101408.49
2023-02-11T01:54:05.393Z,101406.09
2023-02-11T01:56:53.494Z,101396.58
2023-02-11T01:59:28.968Z,101391.40
2023-02-11T02:01:58.617Z,101390.02
2023-02-11T02:04:31.552Z,101394.52
2023-02-11T02:07:03.065Z,101387.55
2023-02-11T02:09:33.707Z,101387.88
2023-02-11T02:12:01.541Z,101383.48
2023-02-11T02:14:30.330Z,101383.78
2023-02-11T02:16:58.418Z,101380.10
2023-02-11T02:20:02.387Z,101374.72
2023-02-11T02:22:42.359Z,101368.81
2023-02-11T02:25:16.053Z,101371.78
2023-02-11T02:27:46.732Z,101367.32
2023-02-11T02:30:27.055Z,101365.48
2023-02-11T02:33:23.913Z,101361.20
2023-02-11T02:36:18.914Z,101365.95
2023-02-11T02:38:49.596Z,101361.01
2023-02-11T02:41:19.221Z,101362.44
2023-02-11T02:43:50.716Z,101358.30
2023-02-11T02:46:28.868Z,101359.17
2023-02-11T02:48:57.161Z,101357.27
2023-02-11T02:52:02.794Z,101357.43
2023-02-11T02:54:58.175Z,101356.59
2023-02-11T02:57:32.883Z,101363.90
2023-02-11T03:00:29.851Z,101366.02
2023-02-11T03:03:05.436Z,101362.79
2023-02-11T03:05:57.319Z,101362.98
2023-02-11T03:08:36.894Z,101367.30
2023-02-11T03:11:04.880Z,101362.12
2023-02-11T03:13:34.268Z,101362.13
2023-02-11T03:16:19.666Z,101357.60
2023-02-11T03:18:53.367Z,101353.43
2023-02-11T03:21:21.346Z,101353.04
2023-02-11T03:23:57.066Z,101350.05
2023-02-11T03:26:31.636Z,101342.72
2023-02-11T03:29:04.185Z,101340.64
2023-02-11T03:31:59.407Z,101338.20
2023-02-11T03:34:38.435Z,101339.59
2023-02-11T03:37:10.051Z,101333.36
2023-02-11T03:39:46.911Z,101334.58
2023-02-11T03:42:15.288Z,101328.52
2023-02-11T03:45:16.777Z,101327.31
2023-02-11T03:47:48.744Z,101321.06
2023-02-11T03:50:16.615Z,101320.19
2023-02-11T03:52:44.689Z,101315.98
2023-02-11T03:55:15.532Z,101312.80
2023-02-11T03:57:43.983Z,101309.64
2023-02-11T04:00:13.282Z,101302.51
2023-02-11T04:02:42.020Z,101301.81
2023-02-11T04:05:11.453Z,101294.88
2023-02-11T04:07:39.323Z,101294.55
2023-02-11T04:10:07.745Z,101296.14
2023-02-11T04:12:35.829Z,101295.30
2023-02-11T04:15:03.904Z,101289.78
2023-02-11T04:17:32.134Z,101288.40
2023-02-11T04:19:59.951Z,101293.59
2023-02-11T04:22:27.950Z,101292.00
2023-02-11T04:24:55.864Z,101291.95
2023-02-11T04:27:24.586Z,101287.21
2023-02-11T04:29:54.154Z,101283.38
2023-02-11T04:32:22.526Z,101284.02
2023-02-11T04:34:52.061Z,101279.66
2023-02-11T04:37:21.324Z,101276.89
2023-02-11T04:39:49.117Z,101272.59
2023-02-11T04:42:17.288Z,101272.80
2023-02-11T04:44:45.092Z,101263.29
2023-02-11T04:47:15.263Z,101259.35
2023-02-11T04:49:43.410Z,101258.36
2023-02-11T04:52:11.943Z,101259.10
2023-02-11T04:54:40.801Z,101257.21
2023-02-11T04:57:08.941Z,101249.93
2023-02-11T04:59:37.963Z,101249.23
2023-02-11T05:02:06.321Z,101246.27
2023-02-11T05:04:35.008Z,101241.41
2023-02-11T05:07:03.597Z,101241.42
2023-02-11T05:09:35.306Z,101242.67
2023-02-11T05:12:04.670Z,101239.44
2023-02-11T05:14:33.329Z,101241.73
2023-02-11T05:17:01.323Z,101245.77
2023-02-11T05:19:31.282Z,101246.36
2023-02-11T05:22:03.103Z,101245.58
2023-02-11T05:24:32.398Z,101253.06
2023-02-11T05:27:00.623Z,101248.79
2023-02-11T05:29:28.569Z,101251.77
2023-02-11T05:32:00.197Z,101249.02
2023-02-11T05:34:28.510Z,101251.77
2023-02-11T05:36:56.557Z,101250.50
2023-02-11T05:39:24.518Z,101245.45
2023-02-11T05:41:52.361Z,101240.93
2023-02-11T05:44:20.318Z,101235.71
2023-02-11T05:46:49.220Z,101232.04
2023-02-11T13:00:40.480Z,100544.35
2023-02-11T13:03:13.771Z,100537.80
2023-02-11T13:18:56.534Z,100495.76
2023-02-11T13:21:50.911Z,100485.71
2023-02-11T13:24:38.581Z,100484.38
2023-02-11T13:27:24.633Z,100474.70
2023-02-11T13:30:20.479Z,100467.62
2023-02-11T13:32:55.922Z,100462.96
2023-02-11T13:35:34.242Z,100450.26
2023-02-11T13:38:17.143Z,100449.48
2023-02-11T13:40:45.348Z,100438.05
2023-02-11T13:43:24.191Z,100440.23
2023-02-11T13:45:52.103Z,100433.38
2023-02-11T13:48:22.457Z,100429.29
2023-02-11T13:50:55.933Z,100430.95
2023-02-11T13:53:23.881Z,100430.92
2023-02-11T13:55:53.186Z,100434.25
2023-02-11T16:25:19.078Z,100299.23
2023-02-11T16:27:52.014Z,100294.88
2023-02-11T16:30:28.966Z,100289.14
2023-02-11T16:32:56.914Z,100286.36
2023-02-11T16:35:24.759Z,100285.33
2023-02-11T16:37:52.883Z,100278.54
2023-02-11T16:40:20.819Z,100278.52
2023-02-11T16:42:49.916Z,100272.94
2023-02-11T16:45:17.764Z,100277.25
2023-02-11T16:47:46.217Z,100272.89
2023-02-11T16:50:24.299Z,100266.13
2023-02-11T16:52:52.449Z,100257.11
2023-02-11T16:55:22.055Z,100253.14
2023-02-11T16:57:50.424Z,100255.27
2023-02-11T17:00:18.742Z,100255.66
2023-02-11T17:02:46.868Z,100248.91
2023-02-11T17:05:20.073Z,100243.05
2023-02-11T17:07:48.826Z,100236.53
2023-02-11T17:10:18.837Z,100235.33
2023-02-11T17:12:48.690Z,100235.31
2023-02-11T17:15:16.928Z,100228.67
2023-02-11T17:17:45.883Z,100232.96
2023-02-11T17:20:14.487Z,100220.77
2023-02-11T17:22:42.404Z,100213.99
2023-02-11T17:25:10.591Z,100213.48
2023-02-11T17:27:38.660Z,100206.71
2023-02-11T17:30:07.598Z,100205.50
2023-02-11T17:32:36.548Z,100202.41
2023-02-11T17:35:07.036Z,100206.58
2023-02-11T17:37:35.697Z,100203.42
2023-02-11T17:40:03.799Z,100203.21
2023-02-11T17:42:32.150Z,100199.67
2023-02-11T17:45:00.117Z,100200.32
2023-02-11T17:47:28.341Z,100199.55
2023-02-11T17:49:56.216Z,100197.30
2023-02-11T17:52:24.405Z,100194.69
2023-02-11T17:54:52.255Z,100188.98
2023-02-11T17:57:20.284Z,100190.90
2023-02-11T17:59:48.310Z,100186.42
2023-02-11T18:02:16.412Z,100187.33
2023-02-11T18:04:45.353Z,100184.11
2023-02-11T18:07:13.467Z,100185.16
2023-02-11T18:09:43.942Z,100176.62
2023-02-11T18:12:11.952Z,100176.73
2023-02-11T18:14:40.651Z,100172.52
2023-02-11T18:17:08.908Z,100166.70
2023-02-11T18:19:37.658Z,100169.77
2023-02-11T18:22:05.650Z,100171.65
2023-02-11T18:24:35.088Z,100169.02
2023-02-11T18:27:03.100Z,100167.67
2023-02-11T18:29:31.628Z,100164.27
2023-02-11T18:31:59.524Z,100168.15
2023-02-11T18:34:28.671Z,100165.77
2023-02-11T18:36:57.050Z,100165.13
2023-02-11T18:39:26.464Z,100159.96
2023-02-11T18:41:56.795Z,100163.09
2023-02-11T18:44:26.139Z,100161.13
2023-02-11T18:46:54.067Z,100157.77
2023-02-11T18:49:22.157Z,100159.26
2023-02-11T18:51:49.984Z,100158.64
2023-02-11T18:54:20.466Z,100155.19
2023-02-11T18:56:48.819Z,100152.80
2023-02-11T18:59:17.376Z,100151.43
2023-02-11T19:01:46.951Z,100144.73
2023-02-11T19:04:19.765Z,100146.91
2023-02-11T19:06:49.522Z,100144.89
2023-02-11T19:09:22.126Z,100144.89
2023-02-11T19:11:50.494Z,100142.11
2023-02-11T19:14:26.335Z,100145.77
2023-02-11T19:16:55.903Z,100141.75
2023-02-11T19:19:25.771Z,100137.04
2023-02-11T19:21:56.072Z,100141.02
2023-02-11T19:24:24.373Z,100138.45
2023-02-11T19:26:55.212Z,100136.41
2023-02-11T19:29:23.436Z,100135.06
2023-02-11T19:31:51.559Z,100130.75
2023-02-11T19:34:22.720Z,100127.12
2023-02-11T19:36:55.076Z,100128.89
2023-02-11T19:39:24.796Z,100121.45
2023-02-11T19:41:52.803Z,100117.82
2023-02-11T19:44:20.811Z,100114.39
2023-02-11T19:46:50.246Z,100104.77
2023-02-11T19:49:23.106Z,100102.27
2023-02-11T19:51:52.217Z,100094.87
2023-02-11T19:54:20.457Z,100092.65
2023-02-11T19:56:48.860Z,100088.45
2023-02-11T19:59:16.745Z,100088.09
2023-02-11T20:01:47.754Z,100089.63
2023-02-11T20:04:16.852Z,100087.04
2023-02-11T20:06:45.288Z,100086.36
2023-02-11T20:09:14.487Z,100080.71
2023-02-11T20:11:42.630Z,100077.30
2023-02-11T20:14:12.836Z,100077.50
2023-02-11T20:16:48.537Z,100074.89
2023-02-11T20:19:21.526Z,100073.11
2023-02-11T20:21:51.988Z,100071.50
2023-02-11T20:24:20.119Z,100070.77
2023-02-11T20:26:48.871Z,100073.04
2023-02-11T20:29:17.828Z,100073.45
2023-02-11T20:31:46.110Z,100072.66
2023-02-11T20:34:14.357Z,100070.63
2023-02-11T20:36:42.771Z,100067.56
2023-02-11T20:39:10.839Z,100059.99
2023-02-11T20:41:42.036Z,100058.98
2023-02-11T20:44:10.394Z,100062.29
2023-02-11T20:46:41.085Z,100060.91
2023-02-11T20:49:12.942Z,100055.93
2023-02-11T20:51:41.270Z,100058.92
2023-02-11T20:54:17.778Z,100049.04
2023-02-11T20:56:51.147Z,100053.22
2023-02-11T20:59:20.907Z,100056.66
2023-02-11T21:01:50.905Z,100053.17
2023-02-11T21:04:20.387Z,100051.39
2023-02-11T21:06:50.048Z,100055.20
2023-02-11T21:09:19.950Z,100049.19
2023-02-11T21:11:51.608Z,100049.95
2023-02-11T21:14:20.749Z,100049.81
2023-02-11T21:16:48.869Z,100048.45
2023-02-11T21:19:16.908Z,100052.80
2023-02-11T21:21:45.046Z,100046.02
2023-02-11T21:24:12.897Z,100044.97
2023-02-11T21:26:42.610Z,100044.27
2023-02-11T21:29:10.976Z,100044.63
2023-02-11T21:31:39.138Z,100042.27
2023-02-11T21:34:07.409Z,100037.57
2023-02-11T21:36:36.151Z,100032.04
2023-02-11T21:39:05.620Z,100022.83
2023-02-11T21:41:33.966Z,100024.22
2023-02-11T21:44:01.912Z,100020.23
2023-02-11T21:46:30.824Z,100020.41
2023-02-11T21:49:00.407Z,100022.86
2023-02-11T21:51:28.436Z,100019.25
2023-02-11T21:53:57.745Z,100026.40
2023-02-11T21:56:28.634Z,100023.13
2023-02-11T21:58:57.537Z,100022.62
2023-02-11T22:01:30.432Z,100022.67
2023-02-11T22:03:58.522Z,100029.02
2023-02-11T22:06:27.880Z,100027.88
2023-02-11T22:08:57.064Z,100027.39
2023-02-11T22:11:25.166Z,100024.14
2023-02-11T22:13:55.161Z,100022.19
2023-02-11T22:16:25.495Z,100020.60
2023-02-11T22:18:53.471Z,100017.95
2023-02-11T22:21:22.228Z,100014.67
2023-02-11T22:23:50.614Z,100015.70
2023-02-11T22:26:21.118Z,100016.56
2023-02-11T22:28:50.464Z,100016.05
2023-02-11T22:31:20.586Z,100016.55
2023-02-11T22:33:49.057Z,100017.23
2023-02-11T22:36:27.745Z,100013.59
2023-02-11T22:38:56.083Z,100015.90
2023-02-11T22:41:24.625Z,100020.64
2023-02-11T22:43:52.549Z,100017.04
2023-02-11T22:46:20.784Z,100013.94
2023-02-11T22:48:48.910Z,100012.18
2023-02-11T22:51:27.990Z,100016.48
2023-02-11T22:53:59.571Z,100016.94
2023-02-11T22:56:28.349Z,100016.38
2023-02-11T22:59:00.916Z,100020.54
2023-02-11T23:01:29.448Z,100020.91
2023-02-11T23:03:59.060Z,100015.56
2023-02-11T23:06:27.070Z,100014.16
2023-02-11T23:08:55.018Z,100015.16
2023-02-11T23:11:24.419Z,100017.55
2023-02-11T23:13:52.763Z,100017.94
2023-02-11T23:16:23.021Z,100021.13
2023-02-11T23:18:51.254Z,100016.16
2023-02-11T23:21:22.180Z,100017.08
2023-02-11T23:23:54.274Z,100018.32
2023-02-11T23:26:22.161Z,100019.00
2023-02-11T23:28:50.659Z,100016.34
2023-02-11T23:31:21.084Z,100016.20
2023-02-11T23:33:49.122Z,100022.12
2023-02-11T23:36:17.432Z,100020.73
2023-02-11T23:38:47.509Z,100023.83
2023-02-11T23:41:15.939Z,100029.66
2023-02-11T23:44:05.057Z,100029.44
2023-02-11T23:46:38.828Z,100029.55
2023-02-11T23:49:06.935Z,100031.98
2023-02-11T23:51:34.897Z,100031.57
2023-02-11T23:54:03.232Z,100037.05
2023-02-11T23:56:31.294Z,100036.85
2023-02-11T23:58:59.523Z,100041.51
